createdAt,value
2022-10-25T00:00:24.664Z,12.80
2022-10-25T00:02:52.475Z,12.90
2022-10-25T00:05:20.307Z,12.90
2022-10-25T00:07:48.266Z,12.80
2022-10-25T00:10:20.066Z,12.80
2022-10-25T00:12:50.107Z,12.90
2022-10-25T00:15:18.005Z,12.90
2022-10-25T00:17:46.083Z,13.00
2022-10-25T00:20:14.175Z,13.00
2022-10-25T00:22:41.979Z,13.10
2022-10-25T00:25:10.272Z,13.10
2022-10-25T00:27:39.399Z,13.10
2022-10-25T00:30:07.779Z,13.10
2022-10-25T00:32:35.882Z,12.90
2022-10-25T00:35:04.059Z,12.90
2022-10-25T00:37:31.885Z,12.80
2022-10-25T00:39:59.754Z,12.80
2022-10-25T00:42:29.824Z,12.90
2022-10-25T00:45:01.605Z,12.80
2022-10-25T00:47:32.663Z,12.90
2022-10-25T00:50:02.815Z,12.80
2022-10-25T00:52:32.595Z,12.80
2022-10-25T00:55:00.786Z,12.80
2022-10-25T00:57:31.833Z,12.80
2022-10-25T01:00:02.504Z,12.80
2022-10-25T01:02:30.373Z,12.80
2022-10-25T01:04:58.182Z,12.70
2022-10-25T01:07:25.930Z,12.70
2022-10-25T01:09:53.903Z,12.80
2022-10-25T01:12:21.681Z,12.90
2022-10-25T01:14:50.777Z,13.00
2022-10-25T01:17:24.723Z,13.00
2022-10-25T01:20:03.767Z,13.00
2022-10-25T01:22:34.263Z,13.10
2022-10-25T01:25:09.667Z,13.10
2022-10-25T01:27:52.967Z,13.10
2022-10-25T01:30:22.828Z,13.20
2022-10-25T01:32:55.469Z,13.10
2022-10-25T01:35:27.548Z,13.20
2022-10-25T01:38:06.412Z,13.20
2022-10-25T01:40:41.795Z,13.30
2022-10-25T01:43:12.074Z,13.40
2022-10-25T01:45:42.534Z,13.40
2022-10-25T01:48:14.996Z,13.40
2022-10-25T01:50:46.754Z,13.40
2022-10-25T01:53:14.533Z,13.40
2022-10-25T01:55:45.134Z,13.30
2022-10-25T01:58:18.394Z,13.30
2022-10-25T02:00:49.721Z,13.30
2022-10-25T02:03:23.667Z,13.30
2022-10-25T02:05:57.140Z,13.30
2022-10-25T02:08:29.035Z,13.30
2022-10-25T02:11:02.500Z,13.20
2022-10-25T02:13:33.334Z,13.20
2022-10-25T02:16:03.044Z,13.20
2022-10-25T02:18:35.571Z,13.20
2022-10-25T02:21:04.030Z,13.20
2022-10-25T02:23:32.608Z,13.30
2022-10-25T02:26:01.270Z,13.30
2022-10-25T02:28:29.873Z,13.30
2022-10-25T02:30:58.153Z,13.30
2022-10-25T02:33:26.197Z,13.30
2022-10-25T02:36:14.879Z,13.30
2022-10-25T02:38:44.978Z,13.30
2022-10-25T02:41:12.962Z,13.30
2022-10-25T02:43:40.777Z,13.40
2022-10-25T02:46:09.765Z,13.40
2022-10-25T02:48:37.856Z,13.30
2022-10-25T02:51:05.716Z,13.30
2022-10-25T02:53:33.918Z,13.30
2022-10-25T02:56:04.437Z,13.30
2022-10-25T02:58:33.336Z,13.30
2022-10-25T03:01:01.835Z,13.40
2022-10-25T03:03:29.770Z,13.40
2022-10-25T03:05:58.397Z,13.40
2022-10-25T03:10:54.434Z,13.40
2022-10-25T03:13:23.624Z,13.50
2022-10-25T03:15:51.482Z,13.50
2022-10-25T03:18:19.327Z,13.50
2022-10-25T03:20:47.226Z,13.40
2022-10-25T03:23:15.388Z,13.40
2022-10-25T03:25:43.184Z,13.50
2022-10-25T03:28:10.957Z,13.50
2022-10-25T03:30:42.656Z,13.50
2022-10-25T03:33:10.708Z,13.50
2022-10-25T03:35:40.929Z,13.50
2022-10-25T03:38:08.712Z,13.50
2022-10-25T03:40:36.500Z,13.50
2022-10-25T03:43:04.354Z,13.50
2022-10-25T03:45:32.141Z,13.60
2022-10-25T03:48:01.243Z,13.60
2022-10-25T03:50:29.072Z,13.50
2022-10-25T03:52:56.998Z,13.50
2022-10-25T03:55:24.870Z,13.40
2022-10-25T03:57:52.681Z,13.50
2022-10-25T04:00:22.805Z,13.40
2022-10-25T04:02:59.337Z,13.40
2022-10-25T04:05:31.343Z,13.40
2022-10-25T04:08:01.291Z,13.40
2022-10-25T04:10:29.112Z,13.40
2022-10-25T04:12:56.890Z,13.30
2022-10-25T04:15:25.466Z,13.40
2022-10-25T04:17:53.643Z,13.40
2022-10-25T04:20:21.922Z,13.40
2022-10-25T04:22:55.314Z,13.30
2022-10-25T04:25:23.320Z,13.30
2022-10-25T04:27:51.160Z,13.40
2022-10-25T04:30:19.018Z,13.40
2022-10-25T04:32:47.305Z,13.40
2022-10-25T04:35:15.977Z,13.40
2022-10-25T04:37:43.794Z,13.40
2022-10-25T04:40:13.701Z,13.40
2022-10-25T04:42:41.572Z,13.40
2022-10-25T04:45:09.884Z,13.40
2022-10-25T04:47:38.050Z,13.40
2022-10-25T04:50:06.317Z,13.40
2022-10-25T04:52:34.109Z,13.30
2022-10-25T04:55:01.920Z,13.30
2022-10-25T04:57:31.039Z,13.30
2022-10-25T04:59:59.150Z,13.20
2022-10-25T05:02:27.025Z,13.20
2022-10-25T05:04:54.909Z,13.20
2022-10-25T05:07:22.958Z,13.20
2022-10-25T05:09:50.706Z,13.20
2022-10-25T05:12:18.515Z,13.20
2022-10-25T05:14:47.639Z,13.10
2022-10-25T05:17:15.528Z,13.10
2022-10-25T05:19:43.341Z,13.10
2022-10-25T05:22:11.106Z,13.10
2022-10-25T05:24:38.914Z,13.00
2022-10-25T05:27:06.762Z,13.00
2022-10-25T05:29:35.481Z,12.90
2022-10-25T05:32:06.950Z,12.90
2022-10-25T05:34:34.804Z,12.90
2022-10-25T05:37:02.755Z,12.90
2022-10-25T05:39:30.527Z,12.90
2022-10-25T05:41:58.817Z,12.90
2022-10-25T05:44:26.583Z,12.80
2022-10-25T05:46:55.246Z,12.90
2022-10-25T05:49:24.361Z,13.00
2022-10-25T05:51:52.158Z,13.10
2022-10-25T05:54:19.978Z,13.20
2022-10-25T05:56:47.767Z,13.30
2022-10-25T05:59:16.109Z,13.30
2022-10-25T06:01:45.187Z,13.30
2022-10-25T06:04:13.786Z,13.30
2022-10-25T06:06:43.591Z,13.30
2022-10-25T06:09:11.742Z,13.30
2022-10-25T06:11:42.171Z,13.40
2022-10-25T06:14:11.185Z,13.40
2022-10-25T06:16:39.194Z,13.50
2022-10-25T06:19:07.070Z,13.50
2022-10-25T06:21:34.865Z,13.50
2022-10-25T06:24:06.571Z,13.60
2022-10-25T06:26:34.427Z,13.60
2022-10-25T06:29:04.059Z,13.60
2022-10-25T06:31:32.593Z,13.60
2022-10-25T06:34:00.960Z,13.60
2022-10-25T06:36:28.779Z,13.60
2022-10-25T06:38:56.600Z,13.70
2022-10-25T06:41:27.767Z,13.70
2022-10-25T06:43:56.193Z,13.70
2022-10-25T06:46:25.307Z,13.70
2022-10-25T06:48:54.381Z,13.70
2022-10-25T06:51:22.735Z,13.80
2022-10-25T06:53:54.426Z,13.70
2022-10-25T06:56:22.202Z,13.80
2022-10-25T06:58:51.410Z,13.80
2022-10-25T07:01:22.556Z,13.80
2022-10-25T07:03:53.462Z,13.80
2022-10-25T07:06:23.260Z,13.80
2022-10-25T07:08:53.927Z,14.00
2022-10-25T07:11:22.612Z,14.00
2022-10-25T07:13:51.812Z,14.00
2022-10-25T07:16:20.761Z,14.00
2022-10-25T07:18:48.939Z,13.90
2022-10-25T07:21:17.382Z,13.90
2022-10-25T07:23:45.569Z,13.80
2022-10-25T07:26:14.325Z,13.80
2022-10-25T07:28:43.759Z,13.90
2022-10-25T07:31:14.292Z,13.90
2022-10-25T07:33:42.215Z,13.90
2022-10-25T07:36:11.436Z,14.00
2022-10-25T07:38:40.097Z,14.00
2022-10-25T07:41:07.996Z,14.10
2022-10-25T07:43:36.173Z,14.20
2022-10-25T07:46:04.192Z,14.20
2022-10-25T07:48:33.378Z,14.30
2022-10-25T07:51:03.576Z,14.40
2022-10-25T07:53:31.392Z,14.50
2022-10-25T07:56:02.570Z,14.60
2022-10-25T07:58:30.639Z,14.60
2022-10-25T08:01:01.997Z,14.80
2022-10-25T08:03:30.204Z,14.90
2022-10-25T08:05:59.929Z,14.90
2022-10-25T08:08:27.820Z,14.90
2022-10-25T08:10:55.746Z,14.80
2022-10-25T08:13:23.548Z,14.60
2022-10-25T08:15:54.509Z,14.60
2022-10-25T08:18:22.588Z,14.40
2022-10-25T08:21:02.281Z,14.30
2022-10-25T08:23:32.598Z,14.20
2022-10-25T08:26:00.776Z,14.20
2022-10-25T08:28:30.741Z,14.20
2022-10-25T08:30:58.580Z,14.20
2022-10-25T08:33:26.383Z,14.30
2022-10-25T08:35:54.230Z,14.30
2022-10-25T08:38:22.085Z,14.30
2022-10-25T08:40:55.462Z,14.30
2022-10-25T08:43:32.691Z,14.20
2022-10-25T08:46:01.967Z,14.20
2022-10-25T08:48:31.810Z,14.20
2022-10-25T08:51:01.559Z,14.30
2022-10-25T08:53:33.078Z,14.20
2022-10-25T08:56:15.999Z,14.30
2022-10-25T08:58:47.288Z,14.30
2022-10-25T09:01:17.232Z,14.40
2022-10-25T09:03:45.260Z,14.50
2022-10-25T09:06:19.746Z,14.50
2022-10-25T09:08:51.976Z,14.70
2022-10-25T09:11:27.126Z,14.70
2022-10-25T09:13:56.392Z,14.80
2022-10-25T09:16:29.798Z,14.90
2022-10-25T09:18:58.584Z,14.70
2022-10-25T09:21:31.966Z,14.70
2022-10-25T09:24:00.974Z,14.80
2022-10-25T09:26:35.536Z,14.70
2022-10-25T09:29:05.907Z,14.80
2022-10-25T09:31:38.703Z,14.90
2022-10-25T09:34:08.599Z,14.90
2022-10-25T09:36:38.899Z,15.00
2022-10-25T09:39:15.669Z,15.00
2022-10-25T09:41:46.405Z,15.10
2022-10-25T09:44:18.577Z,15.00
2022-10-25T09:46:48.217Z,15.10
2022-10-25T09:49:22.012Z,15.30
2022-10-25T09:51:54.443Z,15.40
2022-10-25T09:54:27.880Z,15.40
2022-10-25T09:56:57.241Z,15.40
2022-10-25T09:59:27.771Z,15.50
2022-10-25T10:01:56.317Z,15.60
2022-10-25T10:04:26.748Z,15.80
2022-10-25T10:06:57.642Z,15.80
2022-10-25T10:09:26.989Z,15.80
2022-10-25T10:11:55.409Z,15.80
2022-10-25T10:14:28.683Z,15.90
2022-10-25T10:16:58.186Z,15.80
2022-10-25T10:19:29.490Z,15.70
2022-10-25T10:21:58.348Z,15.60
2022-10-25T10:24:29.582Z,15.70
2022-10-25T10:26:59.229Z,15.60
2022-10-25T10:29:29.077Z,15.60
2022-10-25T10:31:58.838Z,15.50
2022-10-25T10:34:27.961Z,15.50
2022-10-25T10:37:02.511Z,15.50
2022-10-25T10:39:30.343Z,15.40
2022-10-25T10:42:04.407Z,15.40
2022-10-25T10:44:35.957Z,15.40
2022-10-25T10:47:11.004Z,15.40
2022-10-25T10:49:40.191Z,15.50
2022-10-25T10:52:27.154Z,15.50
2022-10-25T10:54:55.774Z,15.50
2022-10-25T10:57:29.412Z,15.50
2022-10-25T10:59:59.640Z,15.50
2022-10-25T11:02:29.712Z,15.50
2022-10-25T11:04:58.014Z,15.70
2022-10-25T11:07:36.427Z,15.80
2022-10-25T11:10:19.554Z,16.00
2022-10-25T11:13:04.899Z,16.00
2022-10-25T11:15:38.656Z,16.30
2022-10-25T11:18:07.337Z,16.40
2022-10-25T11:20:44.831Z,16.60
2022-10-25T11:23:14.998Z,16.60
2022-10-25T11:25:45.297Z,16.70
2022-10-25T11:28:21.236Z,16.60
2022-10-25T11:30:54.764Z,16.60
2022-10-25T11:33:29.314Z,16.60
2022-10-25T11:36:09.922Z,16.70
2022-10-25T11:38:45.152Z,16.70
2022-10-25T11:41:20.068Z,16.80
2022-10-25T11:43:53.999Z,16.60
2022-10-25T11:46:28.007Z,16.80
2022-10-25T11:49:11.265Z,17.00
2022-10-25T11:51:41.984Z,17.10
2022-10-25T11:54:20.516Z,17.30
2022-10-25T11:56:52.209Z,17.40
2022-10-25T11:59:25.267Z,17.40
2022-10-25T12:01:58.545Z,17.30
2022-10-25T12:04:34.769Z,17.40
2022-10-25T12:07:07.888Z,17.70
2022-10-25T12:09:39.687Z,17.90
2022-10-25T12:12:09.575Z,17.80
2022-10-25T12:14:39.203Z,17.60
2022-10-25T12:17:13.778Z,17.70
2022-10-25T12:19:44.241Z,17.90
2022-10-25T12:22:16.332Z,17.90
2022-10-25T12:24:46.147Z,18.00
2022-10-25T12:27:17.187Z,18.00
2022-10-25T12:29:47.264Z,17.70
2022-10-25T12:32:21.346Z,17.80
2022-10-25T12:34:50.984Z,18.10
2022-10-25T12:37:24.496Z,18.10
2022-10-25T12:39:52.656Z,18.00
2022-10-25T12:42:23.099Z,18.20
2022-10-25T12:45:11.750Z,18.30
2022-10-25T12:47:48.512Z,18.50
2022-10-25T12:50:32.426Z,18.30
2022-10-25T12:53:25.974Z,18.00
2022-10-25T12:56:00.176Z,17.80
2022-10-25T12:58:33.649Z,17.70
2022-10-25T13:01:06.840Z,17.20
2022-10-25T13:03:42.239Z,17.00
2022-10-25T13:06:25.010Z,16.80
2022-10-25T13:08:53.103Z,16.50
2022-10-25T13:11:21.032Z,16.50
2022-10-25T13:13:50.346Z,16.70
2022-10-25T13:16:24.255Z,16.80
2022-10-25T13:19:14.672Z,17.00
2022-10-25T13:22:05.175Z,17.10
2022-10-25T13:24:40.109Z,17.00
2022-10-25T13:27:18.901Z,17.00
2022-10-25T13:29:48.544Z,17.00
2022-10-25T13:32:17.705Z,17.00
2022-10-25T13:34:46.935Z,16.90
2022-10-25T13:37:33.503Z,17.00
2022-10-25T13:40:03.559Z,16.90
2022-10-25T13:42:33.388Z,16.70
2022-10-25T13:45:08.331Z,16.50
2022-10-25T13:47:37.921Z,16.40
2022-10-25T13:50:19.726Z,16.40
2022-10-25T13:52:57.790Z,16.30
2022-10-25T13:55:33.636Z,16.40
2022-10-25T13:58:02.191Z,16.40
2022-10-25T14:00:33.276Z,16.30
2022-10-25T14:03:22.273Z,16.30
2022-10-25T14:06:08.360Z,16.20
2022-10-25T14:08:44.445Z,16.20
2022-10-25T14:11:13.907Z,16.10
2022-10-25T14:13:47.533Z,16.10
2022-10-25T14:16:18.992Z,16.00
2022-10-25T14:18:47.091Z,15.90
2022-10-25T14:21:14.993Z,15.90
2022-10-25T14:23:44.458Z,15.80
2022-10-25T14:26:15.056Z,15.80
2022-10-25T14:28:43.029Z,15.70
2022-10-25T14:31:13.158Z,15.60
2022-10-25T14:33:45.784Z,15.60
2022-10-25T14:36:23.485Z,15.60
2022-10-25T14:38:53.437Z,15.60
2022-10-25T14:41:22.251Z,15.50
2022-10-25T14:43:50.148Z,15.50
2022-10-25T14:46:19.535Z,15.40
2022-10-25T14:48:50.654Z,15.40
2022-10-25T14:51:21.792Z,15.40
2022-10-25T14:53:55.750Z,15.40
2022-10-25T14:56:25.857Z,15.40
2022-10-25T14:58:53.835Z,15.30
2022-10-25T15:01:22.866Z,15.30
2022-10-25T15:03:52.155Z,15.20
2022-10-25T15:06:21.905Z,15.10
2022-10-25T15:08:52.350Z,15.10
2022-10-25T15:11:25.006Z,15.00
2022-10-25T15:13:54.294Z,14.90
2022-10-25T15:16:34.355Z,14.90
2022-10-25T15:19:06.265Z,14.80
2022-10-25T15:21:41.307Z,14.70
2022-10-25T15:24:10.832Z,14.50
2022-10-25T15:26:40.098Z,14.50
2022-10-25T15:29:08.289Z,14.50
2022-10-25T15:31:36.239Z,14.30
2022-10-25T15:34:05.402Z,14.30
2022-10-25T15:36:34.368Z,14.30
2022-10-25T15:39:09.315Z,14.20
2022-10-25T15:41:38.232Z,14.20
2022-10-25T15:44:07.635Z,14.20
2022-10-25T15:46:37.939Z,14.20
2022-10-25T15:49:08.180Z,14.10
2022-10-25T15:51:38.609Z,14.00
2022-10-25T15:54:06.536Z,14.10
2022-10-25T15:56:36.787Z,14.10
2022-10-25T15:59:04.689Z,14.00
2022-10-25T16:01:34.033Z,14.00
2022-10-25T16:04:02.378Z,14.00
2022-10-25T16:06:30.299Z,13.90
2022-10-25T16:08:58.374Z,13.80
2022-10-25T16:11:26.423Z,13.90
2022-10-25T16:13:54.351Z,13.80
2022-10-25T16:16:39.360Z,13.70
2022-10-25T16:19:14.337Z,13.60
2022-10-25T16:21:44.880Z,13.50
2022-10-25T16:24:13.175Z,13.60
2022-10-25T16:26:42.992Z,13.40
2022-10-25T16:29:15.239Z,13.30
2022-10-25T16:31:43.348Z,13.30
2022-10-25T16:34:12.845Z,13.20
2022-10-25T16:36:40.814Z,13.20
2022-10-25T16:39:10.046Z,13.20
2022-10-25T16:41:39.077Z,13.20
2022-10-25T16:44:07.252Z,13.20
2022-10-25T16:46:35.077Z,13.30
2022-10-25T16:49:04.833Z,13.20
2022-10-25T16:51:36.812Z,13.10
2022-10-25T16:54:07.548Z,13.30
2022-10-25T16:56:35.615Z,13.30
2022-10-25T16:59:03.783Z,13.20
2022-10-25T17:01:34.195Z,13.00
2022-10-25T17:04:05.935Z,13.20
2022-10-25T17:06:41.350Z,13.00
2022-10-25T17:09:11.969Z,12.90
2022-10-25T17:11:39.836Z,12.90
2022-10-25T17:14:09.613Z,12.90
2022-10-25T17:16:37.750Z,13.00
2022-10-25T17:19:05.634Z,12.90
2022-10-25T17:21:36.681Z,12.80
2022-10-25T17:24:06.590Z,12.70
2022-10-25T17:26:36.084Z,12.70
2022-10-25T17:29:04.373Z,12.80
2022-10-25T17:31:32.660Z,12.70
2022-10-25T17:34:00.843Z,12.60
2022-10-25T17:36:31.639Z,12.50
2022-10-25T17:38:59.598Z,12.40
2022-10-25T17:41:27.845Z,12.50
2022-10-25T17:43:57.283Z,12.40
2022-10-25T17:46:26.327Z,12.40
2022-10-25T17:48:55.175Z,12.50
2022-10-25T17:51:23.468Z,12.40
2022-10-25T17:53:55.238Z,12.40
2022-10-25T17:56:24.163Z,12.30
2022-10-25T17:58:52.644Z,12.40
2022-10-25T18:01:22.978Z,12.20
2022-10-25T18:03:51.505Z,12.10
2022-10-25T18:08:51.837Z,12.00
2022-10-25T18:11:22.353Z,11.80
2022-10-25T18:13:50.793Z,11.70
2022-10-25T18:16:21.481Z,11.50
2022-10-25T18:18:50.666Z,11.50
2022-10-25T18:21:18.583Z,11.60
2022-10-25T18:23:46.641Z,11.70
2022-10-25T18:26:16.703Z,11.60
2022-10-25T18:28:44.521Z,11.80
2022-10-25T18:31:13.828Z,11.80
2022-10-25T18:33:42.570Z,11.90
2022-10-25T18:36:12.659Z,11.90
2022-10-25T18:38:40.628Z,11.90
2022-10-25T18:41:08.973Z,11.90
2022-10-25T18:43:37.140Z,11.90
2022-10-25T18:46:05.029Z,11.80
2022-10-25T18:48:33.083Z,12.00
2022-10-25T18:51:03.612Z,12.00
2022-10-25T18:53:35.326Z,12.00
2022-10-25T18:56:03.296Z,12.10
2022-10-25T18:58:31.206Z,12.10
2022-10-25T19:01:06.572Z,12.00
2022-10-25T19:03:35.852Z,11.90
2022-10-25T19:06:03.692Z,11.90
2022-10-25T19:08:33.056Z,11.80
2022-10-25T19:11:03.525Z,11.70
2022-10-25T19:13:33.891Z,11.70
2022-10-25T19:16:02.008Z,11.80
2022-10-25T19:18:30.646Z,11.70
2022-10-25T19:21:01.713Z,11.70
2022-10-25T19:23:29.722Z,11.60
2022-10-25T19:26:02.158Z,11.60
2022-10-25T19:28:30.462Z,11.50
2022-10-25T19:30:58.286Z,11.30
2022-10-25T19:33:26.096Z,11.10
2022-10-25T19:35:53.899Z,11.00
2022-10-25T19:38:21.738Z,10.90
2022-10-25T19:40:49.547Z,11.10
2022-10-25T19:43:21.377Z,11.00
2022-10-25T19:45:49.215Z,10.90
2022-10-25T19:48:20.725Z,10.90
2022-10-25T19:50:50.253Z,10.80
2022-10-25T19:53:19.214Z,10.70
2022-10-25T19:55:47.392Z,10.60
2022-10-25T19:58:15.266Z,10.60
2022-10-25T20:00:46.740Z,10.70
2022-10-25T20:03:14.574Z,10.90
2022-10-25T20:05:42.576Z,10.90
2022-10-25T20:08:10.436Z,11.00
2022-10-25T20:10:38.515Z,11.00
2022-10-25T20:13:06.560Z,11.00
2022-10-25T20:15:34.455Z,11.00
2022-10-25T20:18:06.034Z,11.00
2022-10-25T20:20:34.642Z,10.80
2022-10-25T20:23:02.508Z,10.80
2022-10-25T20:25:30.316Z,10.80
2022-10-25T20:28:02.915Z,11.00
2022-10-25T20:30:31.223Z,11.00
2022-10-25T20:32:59.087Z,11.00
2022-10-25T20:35:28.344Z,11.00
2022-10-25T20:37:56.186Z,11.00
2022-10-25T20:40:24.225Z,11.00
2022-10-25T20:42:52.008Z,11.10
2022-10-25T20:45:19.920Z,11.10
2022-10-25T20:47:50.537Z,11.10
2022-10-25T20:50:18.672Z,11.10
2022-10-25T20:52:58.607Z,11.00
2022-10-25T20:55:35.767Z,11.00
2022-10-25T20:58:03.555Z,11.00
2022-10-25T21:00:32.513Z,11.00
2022-10-25T21:03:00.462Z,10.80
2022-10-25T21:05:28.280Z,10.70
2022-10-25T21:07:57.469Z,10.70
2022-10-25T21:10:25.231Z,10.60
2022-10-25T21:12:53.029Z,10.60
2022-10-25T21:15:21.809Z,10.50
2022-10-25T21:17:50.065Z,10.50
2022-10-25T21:20:18.158Z,10.60
2022-10-25T21:22:47.543Z,10.60
2022-10-25T21:25:18.036Z,10.50
2022-10-25T21:27:46.109Z,10.40
2022-10-25T21:30:14.339Z,10.30
2022-10-25T21:32:42.463Z,10.30
2022-10-25T21:35:10.262Z,10.10
2022-10-25T21:37:38.058Z,10.10
2022-10-25T21:40:08.858Z,10.10
2022-10-25T21:42:40.255Z,10.20
2022-10-25T21:45:09.087Z,10.30
2022-10-25T21:47:37.173Z,10.40
2022-10-25T21:50:05.319Z,10.50
2022-10-25T21:52:33.286Z,10.40
2022-10-25T21:55:03.129Z,10.50
2022-10-25T21:57:30.976Z,10.50
2022-10-25T22:00:00.156Z,10.50
2022-10-25T22:02:28.122Z,10.50
2022-10-25T22:04:56.213Z,10.40
2022-10-25T22:07:24.065Z,10.30
2022-10-25T22:09:51.865Z,10.30
2022-10-25T22:12:19.879Z,10.30
2022-10-25T22:14:47.690Z,10.20
2022-10-25T22:17:17.457Z,10.00
2022-10-25T22:19:45.342Z,10.00
2022-10-25T22:22:13.163Z,10.00
2022-10-25T22:24:40.990Z,10.10
2022-10-25T22:27:08.807Z,10.00
2022-10-25T22:29:37.026Z,9.90
2022-10-25T22:32:04.918Z,10.00
2022-10-25T22:34:34.120Z,10.00
2022-10-25T22:37:01.999Z,10.00
2022-10-25T22:39:32.091Z,10.00
2022-10-25T22:41:59.996Z,10.10
2022-10-25T22:44:27.836Z,10.10
2022-10-25T22:46:55.755Z,10.10
2022-10-25T22:49:23.598Z,10.10
2022-10-25T22:51:53.053Z,10.00
2022-10-25T22:54:20.853Z,10.10
2022-10-25T22:56:48.615Z,10.10
2022-10-25T22:59:16.411Z,10.10
2022-10-25T23:01:46.520Z,10.00
2022-10-25T23:04:14.412Z,9.90
2022-10-25T23:06:42.245Z,9.80
2022-10-25T23:09:11.717Z,9.70
2022-10-25T23:11:40.212Z,9.60
2022-10-25T23:14:13.332Z,9.60
2022-10-25T23:16:44.397Z,9.40
2022-10-25T23:19:12.268Z,9.40
2022-10-25T23:21:40.039Z,9.30
2022-10-25T23:24:11.424Z,9.20
2022-10-25T23:26:39.545Z,9.10
2022-10-25T23:29:07.511Z,9.10
2022-10-25T23:31:35.391Z,9.20
2022-10-25T23:34:03.216Z,9.20
2022-10-25T23:36:37.124Z,9.30
2022-10-25T23:39:05.676Z,9.20
2022-10-25T23:41:34.831Z,9.30
2022-10-25T23:44:02.811Z,9.50
2022-10-25T23:46:30.648Z,9.60
2022-10-25T23:48:58.779Z,9.50
2022-10-25T23:51:29.183Z,9.50
2022-10-25T23:53:57.045Z,9.50
2022-10-25T23:56:24.896Z,9.40
2022-10-25T23:58:54.353Z,9.40
